sensor_id;sensor_type;location;lat;lon;timestamp;temperature;humidity
15765;DHT22;7983;50.744;7.086;2022-09-29T00:02:16;10.10;99.90
15765;DHT22;7983;50.744;7.086;2022-09-29T00:04:44;10.10;99.90
15765;DHT22;7983;50.744;7.086;2022-09-29T00:07:10;10.00;99.90
15765;DHT22;7983;50.744;7.086;2022-09-29T00:09:37;10.00;99.90
15765;DHT22;7983;50.744;7.086;2022-09-29T00:12:03;9.90;99.90
15765;DHT22;7983;50.744;7.086;2022-09-29T00:14:29;9.90;99.90
15765;DHT22;7983;50.744;7.086;2022-09-29T00:16:56;9.90;99.90
15765;DHT22;7983;50.744;7.086;2022-09-29T00:19:22;9.90;99.90
15765;DHT22;7983;50.744;7.086;2022-09-29T00:21:54;9.90;99.90
15765;DHT22;7983;50.744;7.086;2022-09-29T00:24:24;9.90;99.90
15765;DHT22;7983;50.744;7.086;2022-09-29T00:26:55;9.80;99.90
15765;DHT22;7983;50.744;7.086;2022-09-29T00:29:22;9.80;99.90
15765;DHT22;7983;50.744;7.086;2022-09-29T00:31:50;9.80;99.90
15765;DHT22;7983;50.744;7.086;2022-09-29T00:34:16;9.80;99.90
15765;DHT22;7983;50.744;7.086;2022-09-29T00:36:42;9.70;99.90
15765;DHT22;7983;50.744;7.086;2022-09-29T00:39:10;9.70;99.90
15765;DHT22;7983;50.744;7.086;2022-09-29T00:41:37;9.70;99.90
15765;DHT22;7983;50.744;7.086;2022-09-29T00:47:15;9.70;99.90
15765;DHT22;7983;50.744;7.086;2022-09-29T00:52:39;9.60;99.90
15765;DHT22;7983;50.744;7.086;2022-09-29T00:57:50;9.50;99.90
15765;DHT22;7983;50.744;7.086;2022-09-29T01:00:20;9.50;99.90
15765;DHT22;7983;50.744;7.086;2022-09-29T01:02:51;9.50;99.90
15765;DHT22;7983;50.744;7.086;2022-09-29T01:05:25;9.50;99.90
15765;DHT22;7983;50.744;7.086;2022-09-29T01:07:52;9.50;99.90
15765;DHT22;7983;50.744;7.086;2022-09-29T01:10:20;9.50;99.90
15765;DHT22;7983;50.744;7.086;2022-09-29T01:12:47;9.50;99.90
15765;DHT22;7983;50.744;7.086;2022-09-29T01:15:18;9.40;99.90
15765;DHT22;7983;50.744;7.086;2022-09-29T01:17:44;9.40;99.90
15765;DHT22;7983;50.744;7.086;2022-09-29T01:20:15;9.40;99.90
15765;DHT22;7983;50.744;7.086;2022-09-29T01:41:09;9.30;99.90
15765;DHT22;7983;50.744;7.086;2022-09-29T01:43:44;9.20;99.90
15765;DHT22;7983;50.744;7.086;2022-09-29T01:46:26;9.20;99.90
15765;DHT22;7983;50.744;7.086;2022-09-29T01:48:55;9.20;99.90
15765;DHT22;7983;50.744;7.086;2022-09-29T01:51:28;9.20;99.90
15765;DHT22;7983;50.744;7.086;2022-09-29T01:53:59;9.20;99.90
15765;DHT22;7983;50.744;7.086;2022-09-29T01:57:01;9.20;99.90
15765;DHT22;7983;50.744;7.086;2022-09-29T01:59:37;9.10;99.90
15765;DHT22;7983;50.744;7.086;2022-09-29T02:02:09;9.20;99.90
15765;DHT22;7983;50.744;7.086;2022-09-29T02:04:55;9.10;99.90
15765;DHT22;7983;50.744;7.086;2022-09-29T02:07:30;9.10;99.90
15765;DHT22;7983;50.744;7.086;2022-09-29T02:10:04;9.10;99.90
15765;DHT22;7983;50.744;7.086;2022-09-29T02:12:34;9.10;99.90
15765;DHT22;7983;50.744;7.086;2022-09-29T02:15:04;9.00;99.90
15765;DHT22;7983;50.744;7.086;2022-09-29T02:17:42;9.00;99.90
15765;DHT22;7983;50.744;7.086;2022-09-29T02:20:11;9.00;99.90
15765;DHT22;7983;50.744;7.086;2022-09-29T02:22:40;9.00;99.90
15765;DHT22;7983;50.744;7.086;2022-09-29T02:25:08;8.90;99.90
15765;DHT22;7983;50.744;7.086;2022-09-29T02:27:38;9.00;99.90
15765;DHT22;7983;50.744;7.086;2022-09-29T02:30:05;8.90;99.90
15765;DHT22;7983;50.744;7.086;2022-09-29T02:32:35;8.90;99.90
15765;DHT22;7983;50.744;7.086;2022-09-29T02:35:06;9.00;99.90
15765;DHT22;7983;50.744;7.086;2022-09-29T02:40:27;8.90;99.90
15765;DHT22;7983;50.744;7.086;2022-09-29T02:46:19;8.80;99.90
15765;DHT22;7983;50.744;7.086;2022-09-29T02:51:47;8.80;99.90
15765;DHT22;7983;50.744;7.086;2022-09-29T03:01:54;8.70;99.90
15765;DHT22;7983;50.744;7.086;2022-09-29T03:04:22;8.70;99.90
15765;DHT22;7983;50.744;7.086;2022-09-29T03:06:51;8.70;99.90
15765;DHT22;7983;50.744;7.086;2022-09-29T03:09:19;8.70;99.90
15765;DHT22;7983;50.744;7.086;2022-09-29T03:11:45;8.70;99.90
15765;DHT22;7983;50.744;7.086;2022-09-29T03:14:11;8.70;99.90
15765;DHT22;7983;50.744;7.086;2022-09-29T03:16:37;8.60;99.90
15765;DHT22;7983;50.744;7.086;2022-09-29T03:19:04;8.60;99.90
15765;DHT22;7983;50.744;7.086;2022-09-29T03:21:30;8.70;99.90
15765;DHT22;7983;50.744;7.086;2022-09-29T03:23:58;8.60;99.90
15765;DHT22;7983;50.744;7.086;2022-09-29T03:26:26;8.60;99.90
15765;DHT22;7983;50.744;7.086;2022-09-29T03:28:52;8.50;99.90
15765;DHT22;7983;50.744;7.086;2022-09-29T03:31:18;8.50;99.90
15765;DHT22;7983;50.744;7.086;2022-09-29T03:33:44;8.50;99.90
15765;DHT22;7983;50.744;7.086;2022-09-29T03:36:09;8.50;99.90
15765;DHT22;7983;50.744;7.086;2022-09-29T03:38:38;8.50;99.90
15765;DHT22;7983;50.744;7.086;2022-09-29T03:41:06;8.60;99.90
15765;DHT22;7983;50.744;7.086;2022-09-29T03:43:34;8.50;99.90
15765;DHT22;7983;50.744;7.086;2022-09-29T03:46:04;8.60;99.90
15765;DHT22;7983;50.744;7.086;2022-09-29T03:48:32;8.50;99.90
15765;DHT22;7983;50.744;7.086;2022-09-29T03:50:59;8.50;99.90
15765;DHT22;7983;50.744;7.086;2022-09-29T03:53:26;8.50;99.90
15765;DHT22;7983;50.744;7.086;2022-09-29T03:55:51;8.50;99.90
15765;DHT22;7983;50.744;7.086;2022-09-29T03:58:18;8.50;99.90
15765;DHT22;7983;50.744;7.086;2022-09-29T04:00:48;8.60;99.90
15765;DHT22;7983;50.744;7.086;2022-09-29T04:03:16;8.50;99.90
15765;DHT22;7983;50.744;7.086;2022-09-29T04:05:44;8.50;99.90
15765;DHT22;7983;50.744;7.086;2022-09-29T04:08:12;8.50;99.90
15765;DHT22;7983;50.744;7.086;2022-09-29T04:10:38;8.40;99.90
15765;DHT22;7983;50.744;7.086;2022-09-29T04:13:05;8.40;99.90
15765;DHT22;7983;50.744;7.086;2022-09-29T04:15:33;8.40;99.90
15765;DHT22;7983;50.744;7.086;2022-09-29T04:18:02;8.40;99.90
15765;DHT22;7983;50.744;7.086;2022-09-29T04:20:31;8.40;99.90
15765;DHT22;7983;50.744;7.086;2022-09-29T04:22:58;8.40;99.90
15765;DHT22;7983;50.744;7.086;2022-09-29T04:25:26;8.30;99.90
15765;DHT22;7983;50.744;7.086;2022-09-29T04:27:54;8.40;99.90
15765;DHT22;7983;50.744;7.086;2022-09-29T04:30:20;8.30;99.90
15765;DHT22;7983;50.744;7.086;2022-09-29T04:32:45;8.40;99.90
15765;DHT22;7983;50.744;7.086;2022-09-29T04:35:14;8.40;99.90
15765;DHT22;7983;50.744;7.086;2022-09-29T04:37:39;8.30;99.90
15765;DHT22;7983;50.744;7.086;2022-09-29T04:40:05;8.30;99.90
15765;DHT22;7983;50.744;7.086;2022-09-29T04:42:31;8.30;99.90
15765;DHT22;7983;50.744;7.086;2022-09-29T04:44:59;8.30;99.90
15765;DHT22;7983;50.744;7.086;2022-09-29T04:47:27;8.30;99.90
15765;DHT22;7983;50.744;7.086;2022-09-29T04:49:55;8.30;99.90
15765;DHT22;7983;50.744;7.086;2022-09-29T04:52:21;8.40;99.90
15765;DHT22;7983;50.744;7.086;2022-09-29T04:54:46;8.40;99.90
15765;DHT22;7983;50.744;7.086;2022-09-29T04:57:14;8.40;99.90
15765;DHT22;7983;50.744;7.086;2022-09-29T04:59:39;8.40;99.90
15765;DHT22;7983;50.744;7.086;2022-09-29T05:02:05;8.40;99.90
15765;DHT22;7983;50.744;7.086;2022-09-29T05:04:33;8.40;99.90
15765;DHT22;7983;50.744;7.086;2022-09-29T05:07:01;8.40;99.90
15765;DHT22;7983;50.744;7.086;2022-09-29T05:09:27;8.40;99.90
15765;DHT22;7983;50.744;7.086;2022-09-29T05:11:52;8.40;99.90
15765;DHT22;7983;50.744;7.086;2022-09-29T05:14:25;8.30;99.90
15765;DHT22;7983;50.744;7.086;2022-09-29T05:16:54;8.40;99.90
15765;DHT22;7983;50.744;7.086;2022-09-29T05:19:19;8.40;99.90
15765;DHT22;7983;50.744;7.086;2022-09-29T05:21:45;8.40;99.90
15765;DHT22;7983;50.744;7.086;2022-09-29T05:24:13;8.40;99.90
15765;DHT22;7983;50.744;7.086;2022-09-29T05:26:39;8.30;99.90
15765;DHT22;7983;50.744;7.086;2022-09-29T05:29:07;8.40;99.90
15765;DHT22;7983;50.744;7.086;2022-09-29T05:31:33;8.40;99.90
15765;DHT22;7983;50.744;7.086;2022-09-29T05:33:58;8.40;99.90
15765;DHT22;7983;50.744;7.086;2022-09-29T05:36:26;8.40;99.90
15765;DHT22;7983;50.744;7.086;2022-09-29T05:38:52;8.50;99.90
15765;DHT22;7983;50.744;7.086;2022-09-29T05:41:17;8.40;99.90
15765;DHT22;7983;50.744;7.086;2022-09-29T05:43:50;8.40;99.90
15765;DHT22;7983;50.744;7.086;2022-09-29T05:46:18;8.40;99.90
15765;DHT22;7983;50.744;7.086;2022-09-29T05:48:45;8.40;99.90
15765;DHT22;7983;50.744;7.086;2022-09-29T05:51:22;8.40;99.90
15765;DHT22;7983;50.744;7.086;2022-09-29T05:53:48;8.50;99.90
15765;DHT22;7983;50.744;7.086;2022-09-29T05:56:20;8.50;99.90
15765;DHT22;7983;50.744;7.086;2022-09-29T05:58:46;8.40;99.90
15765;DHT22;7983;50.744;7.086;2022-09-29T06:01:17;8.50;99.90
15765;DHT22;7983;50.744;7.086;2022-09-29T06:03:43;8.50;99.90
15765;DHT22;7983;50.744;7.086;2022-09-29T06:06:14;8.50;99.90
15765;DHT22;7983;50.744;7.086;2022-09-29T06:08:40;8.50;99.90
15765;DHT22;7983;50.744;7.086;2022-09-29T06:11:12;8.50;99.90
15765;DHT22;7983;50.744;7.086;2022-09-29T06:13:43;8.50;99.90
15765;DHT22;7983;50.744;7.086;2022-09-29T06:16:09;8.50;99.90
15765;DHT22;7983;50.744;7.086;2022-09-29T06:18:37;8.60;99.90
15765;DHT22;7983;50.744;7.086;2022-09-29T06:21:06;8.60;99.90
15765;DHT22;7983;50.744;7.086;2022-09-29T06:23:34;8.70;99.90
15765;DHT22;7983;50.744;7.086;2022-09-29T06:26:02;8.70;99.90
15765;DHT22;7983;50.744;7.086;2022-09-29T06:28:29;8.70;99.90
15765;DHT22;7983;50.744;7.086;2022-09-29T06:31:20;8.70;99.90
15765;DHT22;7983;50.744;7.086;2022-09-29T06:33:46;8.80;99.90
15765;DHT22;7983;50.744;7.086;2022-09-29T06:36:17;8.80;99.90
15765;DHT22;7983;50.744;7.086;2022-09-29T06:39:07;8.80;99.90
15765;DHT22;7983;50.744;7.086;2022-09-29T06:41:33;8.80;99.90
15765;DHT22;7983;50.744;7.086;2022-09-29T06:44:00;8.80;99.90
15765;DHT22;7983;50.744;7.086;2022-09-29T06:46:26;8.80;99.90
15765;DHT22;7983;50.744;7.086;2022-09-29T06:48:55;8.90;99.90
15765;DHT22;7983;50.744;7.086;2022-09-29T06:51:23;8.90;99.90
15765;DHT22;7983;50.744;7.086;2022-09-29T06:53:50;8.90;99.90
15765;DHT22;7983;50.744;7.086;2022-09-29T06:56:17;8.90;99.90
15765;DHT22;7983;50.744;7.086;2022-09-29T06:58:46;8.90;99.90
15765;DHT22;7983;50.744;7.086;2022-09-29T07:01:12;9.00;99.90
15765;DHT22;7983;50.744;7.086;2022-09-29T07:03:38;9.00;99.90
15765;DHT22;7983;50.744;7.086;2022-09-29T07:06:05;9.10;99.90
15765;DHT22;7983;50.744;7.086;2022-09-29T07:08:31;9.10;99.90
15765;DHT22;7983;50.744;7.086;2022-09-29T07:11:01;9.10;99.90
15765;DHT22;7983;50.744;7.086;2022-09-29T07:13:29;9.10;99.90
15765;DHT22;7983;50.744;7.086;2022-09-29T07:15:55;9.20;99.90
15765;DHT22;7983;50.744;7.086;2022-09-29T07:18:23;9.20;99.90
15765;DHT22;7983;50.744;7.086;2022-09-29T07:20:49;9.30;99.90
15765;DHT22;7983;50.744;7.086;2022-09-29T07:23:15;9.30;99.90
15765;DHT22;7983;50.744;7.086;2022-09-29T07:25:40;9.30;99.90
15765;DHT22;7983;50.744;7.086;2022-09-29T07:28:08;9.40;99.90
15765;DHT22;7983;50.744;7.086;2022-09-29T07:30:34;9.40;99.90
15765;DHT22;7983;50.744;7.086;2022-09-29T07:33:01;9.40;99.90
15765;DHT22;7983;50.744;7.086;2022-09-29T07:35:29;9.50;99.90
15765;DHT22;7983;50.744;7.086;2022-09-29T07:37:57;9.60;99.90
15765;DHT22;7983;50.744;7.086;2022-09-29T07:40:23;9.60;99.90
15765;DHT22;7983;50.744;7.086;2022-09-29T07:42:49;9.60;99.90
15765;DHT22;7983;50.744;7.086;2022-09-29T07:45:18;9.70;99.90
15765;DHT22;7983;50.744;7.086;2022-09-29T07:47:46;9.70;99.90
15765;DHT22;7983;50.744;7.086;2022-09-29T07:50:12;9.70;99.90
15765;DHT22;7983;50.744;7.086;2022-09-29T07:52:38;9.70;99.90
15765;DHT22;7983;50.744;7.086;2022-09-29T07:55:04;9.70;99.90
15765;DHT22;7983;50.744;7.086;2022-09-29T07:57:32;9.80;99.90
15765;DHT22;7983;50.744;7.086;2022-09-29T07:59:58;9.90;99.90
15765;DHT22;7983;50.744;7.086;2022-09-29T08:02:24;9.90;99.90
15765;DHT22;7983;50.744;7.086;2022-09-29T08:04:54;9.90;99.90
15765;DHT22;7983;50.744;7.086;2022-09-29T08:07:20;10.00;99.90
15765;DHT22;7983;50.744;7.086;2022-09-29T08:09:48;10.00;99.90
15765;DHT22;7983;50.744;7.086;2022-09-29T08:12:14;10.10;99.90
15765;DHT22;7983;50.744;7.086;2022-09-29T08:14:41;10.10;99.90
15765;DHT22;7983;50.744;7.086;2022-09-29T08:17:10;10.20;99.90
15765;DHT22;7983;50.744;7.086;2022-09-29T08:19:35;10.20;99.90
15765;DHT22;7983;50.744;7.086;2022-09-29T08:22:01;10.30;99.90
15765;DHT22;7983;50.744;7.086;2022-09-29T08:24:31;10.30;99.90
15765;DHT22;7983;50.744;7.086;2022-09-29T08:26:57;10.30;99.90
15765;DHT22;7983;50.744;7.086;2022-09-29T08:29:23;10.30;99.90
15765;DHT22;7983;50.744;7.086;2022-09-29T08:31:48;10.40;99.90
15765;DHT22;7983;50.744;7.086;2022-09-29T08:34:17;10.40;99.90
15765;DHT22;7983;50.744;7.086;2022-09-29T08:36:43;10.40;99.90
15765;DHT22;7983;50.744;7.086;2022-09-29T08:39:09;10.40;99.90
15765;DHT22;7983;50.744;7.086;2022-09-29T08:41:45;10.50;99.90
15765;DHT22;7983;50.744;7.086;2022-09-29T08:46:43;10.60;99.90
15765;DHT22;7983;50.744;7.086;2022-09-29T08:49:15;10.60;99.90
15765;DHT22;7983;50.744;7.086;2022-09-29T08:51:50;10.70;99.90
15765;DHT22;7983;50.744;7.086;2022-09-29T08:54:37;10.80;99.90
15765;DHT22;7983;50.744;7.086;2022-09-29T08:57:05;10.80;99.90
15765;DHT22;7983;50.744;7.086;2022-09-29T08:59:33;10.90;99.90
15765;DHT22;7983;50.744;7.086;2022-09-29T09:03:00;11.00;99.90
15765;DHT22;7983;50.744;7.086;2022-09-29T09:22:24;11.50;99.90
15765;DHT22;7983;50.744;7.086;2022-09-29T09:25:32;11.60;99.90
15765;DHT22;7983;50.744;7.086;2022-09-29T09:31:13;12.00;99.90
15765;DHT22;7983;50.744;7.086;2022-09-29T09:33:43;12.40;99.90
15765;DHT22;7983;50.744;7.086;2022-09-29T09:41:14;13.70;99.90
15765;DHT22;7983;50.744;7.086;2022-09-29T09:43:44;14.10;99.90
15765;DHT22;7983;50.744;7.086;2022-09-29T09:48:49;14.60;99.90
15765;DHT22;7983;50.744;7.086;2022-09-29T09:54:03;15.10;99.90
15765;DHT22;7983;50.744;7.086;2022-09-29T09:56:42;15.40;99.90
15765;DHT22;7983;50.744;7.086;2022-09-29T10:01:38;16.30;99.90
15765;DHT22;7983;50.744;7.086;2022-09-29T10:04:07;16.60;99.90
15765;DHT22;7983;50.744;7.086;2022-09-29T10:06:35;17.10;99.90
15765;DHT22;7983;50.744;7.086;2022-09-29T10:09:01;17.50;99.90
15765;DHT22;7983;50.744;7.086;2022-09-29T10:11:29;17.80;99.90
15765;DHT22;7983;50.744;7.086;2022-09-29T10:14:23;18.20;99.90
15765;DHT22;7983;50.744;7.086;2022-09-29T10:17:04;18.40;99.90
15765;DHT22;7983;50.744;7.086;2022-09-29T10:19:51;18.50;99.90
15765;DHT22;7983;50.744;7.086;2022-09-29T10:22:19;18.60;99.90
15765;DHT22;7983;50.744;7.086;2022-09-29T10:24:45;18.60;99.90
15765;DHT22;7983;50.744;7.086;2022-09-29T10:27:17;18.80;99.90
15765;DHT22;7983;50.744;7.086;2022-09-29T10:29:47;19.00;99.90
15765;DHT22;7983;50.744;7.086;2022-09-29T10:32:26;19.20;99.90
15765;DHT22;7983;50.744;7.086;2022-09-29T10:37:46;19.60;99.90
15765;DHT22;7983;50.744;7.086;2022-09-29T10:40:16;19.80;99.90
15765;DHT22;7983;50.744;7.086;2022-09-29T10:42:44;19.90;99.90
15765;DHT22;7983;50.744;7.086;2022-09-29T10:50:28;19.80;99.90
15765;DHT22;7983;50.744;7.086;2022-09-29T10:52:58;19.90;99.90
15765;DHT22;7983;50.744;7.086;2022-09-29T10:55:34;19.90;99.90
15765;DHT22;7983;50.744;7.086;2022-09-29T10:58:15;19.90;99.90
15765;DHT22;7983;50.744;7.086;2022-09-29T11:00:47;19.80;99.90
15765;DHT22;7983;50.744;7.086;2022-09-29T11:06:08;19.60;99.90
15765;DHT22;7983;50.744;7.086;2022-09-29T11:09:05;19.40;99.90
15765;DHT22;7983;50.744;7.086;2022-09-29T11:16:55;18.80;99.90
15765;DHT22;7983;50.744;7.086;2022-09-29T11:19:22;18.60;99.90
15765;DHT22;7983;50.744;7.086;2022-09-29T11:22:19;18.40;99.90
15765;DHT22;7983;50.744;7.086;2022-09-29T11:30:13;18.10;99.90
15765;DHT22;7983;50.744;7.086;2022-09-29T11:35:44;18.30;99.90
15765;DHT22;7983;50.744;7.086;2022-09-29T11:38:37;18.30;99.90
15765;DHT22;7983;50.744;7.086;2022-09-29T11:43:52;18.30;99.90
15765;DHT22;7983;50.744;7.086;2022-09-29T11:46:40;18.30;99.90
15765;DHT22;7983;50.744;7.086;2022-09-29T11:49:51;18.20;99.90
15765;DHT22;7983;50.744;7.086;2022-09-29T11:55:41;18.20;99.90
15765;DHT22;7983;50.744;7.086;2022-09-29T12:11:57;18.80;99.90
15765;DHT22;7983;50.744;7.086;2022-09-29T12:14:37;19.10;99.90
15765;DHT22;7983;50.744;7.086;2022-09-29T12:17:15;19.40;99.90
15765;DHT22;7983;50.744;7.086;2022-09-29T12:19:44;19.80;99.90
15765;DHT22;7983;50.744;7.086;2022-09-29T12:22:16;20.00;99.90
15765;DHT22;7983;50.744;7.086;2022-09-29T12:24:57;20.30;99.90
15765;DHT22;7983;50.744;7.086;2022-09-29T12:27:32;20.40;99.90
15765;DHT22;7983;50.744;7.086;2022-09-29T12:30:03;20.40;99.90
15765;DHT22;7983;50.744;7.086;2022-09-29T12:32:40;20.40;99.90
15765;DHT22;7983;50.744;7.086;2022-09-29T12:40:53;19.90;99.90
15765;DHT22;7983;50.744;7.086;2022-09-29T12:43:34;19.70;99.90
15765;DHT22;7983;50.744;7.086;2022-09-29T12:51:41;19.60;99.90
15765;DHT22;7983;50.744;7.086;2022-09-29T12:54:31;19.80;99.90
15765;DHT22;7983;50.744;7.086;2022-09-29T12:57:21;19.90;99.90
15765;DHT22;7983;50.744;7.086;2022-09-29T13:00:05;20.00;99.90
15765;DHT22;7983;50.744;7.086;2022-09-29T13:13:43;19.50;99.90
15765;DHT22;7983;50.744;7.086;2022-09-29T13:24:56;19.90;99.90
15765;DHT22;7983;50.744;7.086;2022-09-29T13:27:32;20.00;99.90
15765;DHT22;7983;50.744;7.086;2022-09-29T13:30:04;20.20;99.90
15765;DHT22;7983;50.744;7.086;2022-09-29T13:32:32;20.30;99.90
15765;DHT22;7983;50.744;7.086;2022-09-29T13:35:15;20.40;99.90
15765;DHT22;7983;50.744;7.086;2022-09-29T13:37:50;20.50;99.90
15765;DHT22;7983;50.744;7.086;2022-09-29T13:40:25;20.70;99.90
15765;DHT22;7983;50.744;7.086;2022-09-29T13:42:54;20.80;99.90
15765;DHT22;7983;50.744;7.086;2022-09-29T13:47:54;21.00;99.90
15765;DHT22;7983;50.744;7.086;2022-09-29T13:58:28;20.60;99.90
15765;DHT22;7983;50.744;7.086;2022-09-29T14:01:01;20.40;99.90
15765;DHT22;7983;50.744;7.086;2022-09-29T14:06:26;20.00;99.90
15765;DHT22;7983;50.744;7.086;2022-09-29T14:09:19;19.70;99.90
15765;DHT22;7983;50.744;7.086;2022-09-29T14:11:51;19.50;99.90
15765;DHT22;7983;50.744;7.086;2022-09-29T14:14:43;19.30;99.90
15765;DHT22;7983;50.744;7.086;2022-09-29T14:30:19;19.70;99.90
15765;DHT22;7983;50.744;7.086;2022-09-29T14:35:38;20.10;99.90
15765;DHT22;7983;50.744;7.086;2022-09-29T14:38:17;20.40;99.90
15765;DHT22;7983;50.744;7.086;2022-09-29T14:43:40;20.40;99.90
15765;DHT22;7983;50.744;7.086;2022-09-29T14:55:34;19.90;99.90
15765;DHT22;7983;50.744;7.086;2022-09-29T15:03:34;19.40;99.90
15765;DHT22;7983;50.744;7.086;2022-09-29T15:06:04;19.20;99.90
15765;DHT22;7983;50.744;7.086;2022-09-29T15:08:31;19.00;99.90
15765;DHT22;7983;50.744;7.086;2022-09-29T15:11:01;18.80;99.90
15765;DHT22;7983;50.744;7.086;2022-09-29T15:13:29;18.70;99.90
15765;DHT22;7983;50.744;7.086;2022-09-29T15:16:14;18.50;99.90
15765;DHT22;7983;50.744;7.086;2022-09-29T15:27:14;17.90;99.90
15765;DHT22;7983;50.744;7.086;2022-09-29T15:29:46;17.70;99.90
15765;DHT22;7983;50.744;7.086;2022-09-29T15:32:21;17.60;99.90
15765;DHT22;7983;50.744;7.086;2022-09-29T15:34:49;17.50;99.90
15765;DHT22;7983;50.744;7.086;2022-09-29T15:37:54;17.30;99.90
15765;DHT22;7983;50.744;7.086;2022-09-29T15:40:22;17.20;99.90
15765;DHT22;7983;50.744;7.086;2022-09-29T15:42:48;17.10;99.90
15765;DHT22;7983;50.744;7.086;2022-09-29T15:45:24;17.00;99.90
15765;DHT22;7983;50.744;7.086;2022-09-29T15:48:01;16.90;99.90
15765;DHT22;7983;50.744;7.086;2022-09-29T15:50:32;16.80;99.90
15765;DHT22;7983;50.744;7.086;2022-09-29T15:53:00;16.70;99.90
15765;DHT22;7983;50.744;7.086;2022-09-29T15:55:31;16.70;99.90
15765;DHT22;7983;50.744;7.086;2022-09-29T15:57:59;16.60;99.90
15765;DHT22;7983;50.744;7.086;2022-09-29T16:05:39;16.40;99.90
15765;DHT22;7983;50.744;7.086;2022-09-29T16:08:22;16.30;99.90
15765;DHT22;7983;50.744;7.086;2022-09-29T16:10:58;16.30;99.90
15765;DHT22;7983;50.744;7.086;2022-09-29T16:13:37;16.20;99.90
15765;DHT22;7983;50.744;7.086;2022-09-29T16:16:10;16.20;99.90
15765;DHT22;7983;50.744;7.086;2022-09-29T16:18:47;16.10;99.90
15765;DHT22;7983;50.744;7.086;2022-09-29T16:21:22;16.10;99.90
15765;DHT22;7983;50.744;7.086;2022-09-29T16:31:32;15.80;99.90
15765;DHT22;7983;50.744;7.086;2022-09-29T16:34:02;15.70;99.90
15765;DHT22;7983;50.744;7.086;2022-09-29T16:36:31;15.60;99.90
15765;DHT22;7983;50.744;7.086;2022-09-29T16:38:58;15.60;99.90
15765;DHT22;7983;50.744;7.086;2022-09-29T16:41:35;15.50;99.90
15765;DHT22;7983;50.744;7.086;2022-09-29T16:44:14;15.50;99.90
15765;DHT22;7983;50.744;7.086;2022-09-29T16:52:14;15.30;99.90
15765;DHT22;7983;50.744;7.086;2022-09-29T16:54:45;15.30;99.90
15765;DHT22;7983;50.744;7.086;2022-09-29T16:57:28;15.20;99.90
15765;DHT22;7983;50.744;7.086;2022-09-29T17:00:00;15.20;99.90
15765;DHT22;7983;50.744;7.086;2022-09-29T17:02:30;15.20;99.90
15765;DHT22;7983;50.744;7.086;2022-09-29T17:04:58;15.20;99.90
15765;DHT22;7983;50.744;7.086;2022-09-29T17:07:26;15.10;99.90
15765;DHT22;7983;50.744;7.086;2022-09-29T17:09:59;15.10;99.90
15765;DHT22;7983;50.744;7.086;2022-09-29T17:12:30;15.00;99.90
15765;DHT22;7983;50.744;7.086;2022-09-29T17:14:58;15.00;99.90
15765;DHT22;7983;50.744;7.086;2022-09-29T17:17:27;14.90;99.90
15765;DHT22;7983;50.744;7.086;2022-09-29T17:19:54;14.90;99.90
15765;DHT22;7983;50.744;7.086;2022-09-29T17:24:57;14.70;99.90
15765;DHT22;7983;50.744;7.086;2022-09-29T17:27:29;14.60;99.90
15765;DHT22;7983;50.744;7.086;2022-09-29T17:30:20;14.50;99.90
15765;DHT22;7983;50.744;7.086;2022-09-29T17:32:49;14.50;99.90
15765;DHT22;7983;50.744;7.086;2022-09-29T17:35:17;14.40;99.90
15765;DHT22;7983;50.744;7.086;2022-09-29T17:37:44;14.30;99.90
15765;DHT22;7983;50.744;7.086;2022-09-29T17:43:17;14.20;99.90
15765;DHT22;7983;50.744;7.086;2022-09-29T17:45:44;14.10;99.90
15765;DHT22;7983;50.744;7.086;2022-09-29T17:48:11;14.00;99.90
15765;DHT22;7983;50.744;7.086;2022-09-29T17:50:50;13.90;99.90
15765;DHT22;7983;50.744;7.086;2022-09-29T17:53:23;13.80;99.90
15765;DHT22;7983;50.744;7.086;2022-09-29T17:55:55;13.80;99.90
15765;DHT22;7983;50.744;7.086;2022-09-29T17:58:21;13.70;99.90
15765;DHT22;7983;50.744;7.086;2022-09-29T18:00:49;13.70;99.90
15765;DHT22;7983;50.744;7.086;2022-09-29T18:03:19;13.60;99.90
15765;DHT22;7983;50.744;7.086;2022-09-29T18:05:47;13.50;99.90
15765;DHT22;7983;50.744;7.086;2022-09-29T18:08:16;13.50;99.90
15765;DHT22;7983;50.744;7.086;2022-09-29T18:10:45;13.50;99.90
15765;DHT22;7983;50.744;7.086;2022-09-29T18:13:13;13.40;99.90
15765;DHT22;7983;50.744;7.086;2022-09-29T18:15:41;13.40;99.90
15765;DHT22;7983;50.744;7.086;2022-09-29T18:18:11;13.40;99.90
15765;DHT22;7983;50.744;7.086;2022-09-29T18:20:40;13.30;99.90
15765;DHT22;7983;50.744;7.086;2022-09-29T18:23:08;13.30;99.90
15765;DHT22;7983;50.744;7.086;2022-09-29T18:25:34;13.20;99.90
15765;DHT22;7983;50.744;7.086;2022-09-29T18:28:03;13.20;99.90
15765;DHT22;7983;50.744;7.086;2022-09-29T18:30:33;13.20;99.90
15765;DHT22;7983;50.744;7.086;2022-09-29T18:33:08;13.10;99.90
15765;DHT22;7983;50.744;7.086;2022-09-29T18:35:37;13.10;99.90
15765;DHT22;7983;50.744;7.086;2022-09-29T18:38:05;13.00;99.90
15765;DHT22;7983;50.744;7.086;2022-09-29T18:40:34;13.00;99.90
15765;DHT22;7983;50.744;7.086;2022-09-29T18:43:00;13.00;99.90
15765;DHT22;7983;50.744;7.086;2022-09-29T18:45:33;13.00;99.90
15765;DHT22;7983;50.744;7.086;2022-09-29T18:48:04;13.00;99.90
15765;DHT22;7983;50.744;7.086;2022-09-29T18:50:42;13.00;99.90
15765;DHT22;7983;50.744;7.086;2022-09-29T18:53:09;13.00;99.90
15765;DHT22;7983;50.744;7.086;2022-09-29T18:55:35;13.00;99.90
15765;DHT22;7983;50.744;7.086;2022-09-29T18:58:03;13.00;99.90
15765;DHT22;7983;50.744;7.086;2022-09-29T19:00:34;13.00;99.90
15765;DHT22;7983;50.744;7.086;2022-09-29T19:03:03;12.90;99.90
15765;DHT22;7983;50.744;7.086;2022-09-29T19:05:30;12.90;99.90
15765;DHT22;7983;50.744;7.086;2022-09-29T19:08:02;12.90;99.90
15765;DHT22;7983;50.744;7.086;2022-09-29T19:10:33;12.80;99.90
15765;DHT22;7983;50.744;7.086;2022-09-29T19:13:00;12.80;99.90
15765;DHT22;7983;50.744;7.086;2022-09-29T19:15:29;12.80;99.90
15765;DHT22;7983;50.744;7.086;2022-09-29T19:17:55;12.80;99.90
15765;DHT22;7983;50.744;7.086;2022-09-29T19:20:22;12.80;99.90
15765;DHT22;7983;50.744;7.086;2022-09-29T19:22:51;12.70;99.90
15765;DHT22;7983;50.744;7.086;2022-09-29T19:25:25;12.70;99.90
15765;DHT22;7983;50.744;7.086;2022-09-29T19:27:58;12.60;99.90
15765;DHT22;7983;50.744;7.086;2022-09-29T19:30:27;12.60;99.90
15765;DHT22;7983;50.744;7.086;2022-09-29T19:32:54;12.50;99.90
15765;DHT22;7983;50.744;7.086;2022-09-29T19:35:21;12.50;99.90
15765;DHT22;7983;50.744;7.086;2022-09-29T19:37:48;12.50;99.90
15765;DHT22;7983;50.744;7.086;2022-09-29T19:40:23;12.40;99.90
15765;DHT22;7983;50.744;7.086;2022-09-29T19:42:52;12.40;99.90
15765;DHT22;7983;50.744;7.086;2022-09-29T19:45:20;12.40;99.90
15765;DHT22;7983;50.744;7.086;2022-09-29T19:47:46;12.30;99.90
15765;DHT22;7983;50.744;7.086;2022-09-29T19:50:17;12.30;99.90
15765;DHT22;7983;50.744;7.086;2022-09-29T19:53:01;12.30;99.90
15765;DHT22;7983;50.744;7.086;2022-09-29T19:55:27;12.20;99.90
15765;DHT22;7983;50.744;7.086;2022-09-29T19:57:52;12.20;99.90
15765;DHT22;7983;50.744;7.086;2022-09-29T20:00:19;12.20;99.90
15765;DHT22;7983;50.744;7.086;2022-09-29T20:02:46;12.20;99.90
15765;DHT22;7983;50.744;7.086;2022-09-29T20:05:12;12.10;99.90
15765;DHT22;7983;50.744;7.086;2022-09-29T20:07:40;12.10;99.90
15765;DHT22;7983;50.744;7.086;2022-09-29T20:10:11;12.10;99.90